YYZ weather

Lester B. Pearson International Airport
Toronto, Ontario, Canada

Public forecast

Using degrees Celsius for public forecast. Weather courtesy of forecast.io.

Current aviation weather report (METAR) for Lester B. Pearson International Airport

Retrieved 2020/04/03 20:00 UTC (20 minutes ago):

CYYZ 032000Z 01004KT 320V050 15SM FEW024 SCT034 OVC058 11/03 A2998 RMK CU1SC2SC5 SLP158

Aviation forecast (TAF) for Lester B. Pearson International Airport

Retrieved 2020/04/03 18:40 UTC (2 hours ago):

TAF CYYZ 031738Z 0318/0424 01010KT P6SM BKN040 BKN250 FM032200 02010KT P6SM BKN030 OVC070 TEMPO 0322/0403 P6SM -SHRA FM040300 01008KT P6SM BKN030 TEMPO 0403/0415 BKN020 PROB30 0403/0415 5SM -DZ BR BKN008 OVC020 FM041500 11008KT P6SM BKN010 OVC040 FM042000 14008KT P6SM BKN020 FM042300 13008KT P6SM BKN030 BKN080 RMK NXT FCST BY 032100Z